sensor_id;sensor_type;location;lat;lon;timestamp;P1;durP1;ratioP1;P2;durP2;ratioP2
1276;SDS011;631;51.024;13.826;2024-01-06T00:01:21;23.83;;;20.97;;
1276;SDS011;631;51.024;13.826;2024-01-06T00:03:47;22.50;;;19.60;;
1276;SDS011;631;51.024;13.826;2024-01-06T00:06:13;23.90;;;20.23;;
1276;SDS011;631;51.024;13.826;2024-01-06T00:08:38;25.45;;;21.63;;
1276;SDS011;631;51.024;13.826;2024-01-06T00:11:04;23.53;;;21.13;;
1276;SDS011;631;51.024;13.826;2024-01-06T00:13:30;23.23;;;20.93;;
1276;SDS011;631;51.024;13.826;2024-01-06T00:15:55;23.67;;;21.17;;
1276;SDS011;631;51.024;13.826;2024-01-06T00:18:21;23.53;;;21.13;;
1276;SDS011;631;51.024;13.826;2024-01-06T00:20:47;23.65;;;21.25;;
1276;SDS011;631;51.024;13.826;2024-01-06T00:23:13;23.43;;;20.93;;
1276;SDS011;631;51.024;13.826;2024-01-06T00:25:38;22.73;;;20.63;;
1276;SDS011;631;51.024;13.826;2024-01-06T00:28:04;25.00;;;21.27;;
1276;SDS011;631;51.024;13.826;2024-01-06T00:30:30;24.97;;;21.10;;
1276;SDS011;631;51.024;13.826;2024-01-06T00:32:55;24.30;;;21.13;;
1276;SDS011;631;51.024;13.826;2024-01-06T00:35:21;23.23;;;20.83;;
1276;SDS011;631;51.024;13.826;2024-01-06T00:37:47;23.77;;;21.37;;
1276;SDS011;631;51.024;13.826;2024-01-06T00:40:12;23.47;;;20.93;;
1276;SDS011;631;51.024;13.826;2024-01-06T00:42:38;22.80;;;20.50;;
1276;SDS011;631;51.024;13.826;2024-01-06T00:45:04;24.90;;;21.30;;
1276;SDS011;631;51.024;13.826;2024-01-06T00:47:30;27.77;;;21.90;;
1276;SDS011;631;51.024;13.826;2024-01-06T00:49:56;26.50;;;21.90;;
1276;SDS011;631;51.024;13.826;2024-01-06T00:52:21;26.97;;;21.67;;
1276;SDS011;631;51.024;13.826;2024-01-06T00:54:47;24.20;;;21.50;;
1276;SDS011;631;51.024;13.826;2024-01-06T00:57:13;25.33;;;21.50;;
1276;SDS011;631;51.024;13.826;2024-01-06T00:59:38;28.53;;;22.40;;
1276;SDS011;631;51.024;13.826;2024-01-06T01:02:04;24.20;;;21.03;;
1276;SDS011;631;51.024;13.826;2024-01-06T01:04:29;25.97;;;21.70;;
1276;SDS011;631;51.024;13.826;2024-01-06T01:06:55;26.80;;;21.40;;
1276;SDS011;631;51.024;13.826;2024-01-06T01:09:20;25.80;;;20.90;;
1276;SDS011;631;51.024;13.826;2024-01-06T01:11:46;25.73;;;22.10;;
1276;SDS011;631;51.024;13.826;2024-01-06T01:14:12;24.50;;;22.00;;
1276;SDS011;631;51.024;13.826;2024-01-06T01:16:37;25.40;;;22.00;;
1276;SDS011;631;51.024;13.826;2024-01-06T01:19:03;24.10;;;21.53;;
1276;SDS011;631;51.024;13.826;2024-01-06T01:21:28;24.37;;;21.60;;
1276;SDS011;631;51.024;13.826;2024-01-06T01:23:54;24.73;;;20.47;;
1276;SDS011;631;51.024;13.826;2024-01-06T01:26:19;26.23;;;22.30;;
1276;SDS011;631;51.024;13.826;2024-01-06T01:28:45;25.13;;;22.30;;
1276;SDS011;631;51.024;13.826;2024-01-06T01:31:11;25.60;;;22.77;;
1276;SDS011;631;51.024;13.826;2024-01-06T01:33:38;27.50;;;23.05;;
1276;SDS011;631;51.024;13.826;2024-01-06T01:36:04;24.07;;;21.63;;
1276;SDS011;631;51.024;13.826;2024-01-06T01:38:29;29.17;;;23.00;;
1276;SDS011;631;51.024;13.826;2024-01-06T01:40:55;24.90;;;22.30;;
1276;SDS011;631;51.024;13.826;2024-01-06T01:43:21;26.00;;;23.33;;
1276;SDS011;631;51.024;13.826;2024-01-06T01:45:48;27.48;;;23.40;;
1276;SDS011;631;51.024;13.826;2024-01-06T01:48:18;28.40;;;21.70;;
1276;SDS011;631;51.024;13.826;2024-01-06T01:50:47;24.63;;;21.38;;
1276;SDS011;631;51.024;13.826;2024-01-06T01:53:13;28.05;;;22.67;;
1276;SDS011;631;51.024;13.826;2024-01-06T01:55:42;27.50;;;22.40;;
1276;SDS011;631;51.024;13.826;2024-01-06T01:58:09;24.67;;;22.00;;
1276;SDS011;631;51.024;13.826;2024-01-06T02:00:37;28.77;;;22.63;;
1276;SDS011;631;51.024;13.826;2024-01-06T02:03:03;24.47;;;21.67;;
1276;SDS011;631;51.024;13.826;2024-01-06T02:05:29;28.77;;;22.38;;
1276;SDS011;631;51.024;13.826;2024-01-06T02:07:55;27.87;;;24.03;;
1276;SDS011;631;51.024;13.826;2024-01-06T02:10:21;26.23;;;23.20;;
1276;SDS011;631;51.024;13.826;2024-01-06T02:12:47;26.83;;;23.80;;
1276;SDS011;631;51.024;13.826;2024-01-06T02:15:13;25.75;;;22.35;;
1276;SDS011;631;51.024;13.826;2024-01-06T02:17:39;24.93;;;22.33;;
1276;SDS011;631;51.024;13.826;2024-01-06T02:20:05;30.40;;;24.40;;
1276;SDS011;631;51.024;13.826;2024-01-06T02:22:34;31.42;;;22.90;;
1276;SDS011;631;51.024;13.826;2024-01-06T02:25:01;27.02;;;23.48;;
1276;SDS011;631;51.024;13.826;2024-01-06T02:27:27;28.20;;;23.50;;
1276;SDS011;631;51.024;13.826;2024-01-06T02:29:53;25.33;;;22.63;;
1276;SDS011;631;51.024;13.826;2024-01-06T02:32:18;30.67;;;23.57;;
1276;SDS011;631;51.024;13.826;2024-01-06T02:34:44;26.10;;;23.30;;
1276;SDS011;631;51.024;13.826;2024-01-06T02:37:10;25.47;;;22.80;;
1276;SDS011;631;51.024;13.826;2024-01-06T02:39:35;26.80;;;23.53;;
1276;SDS011;631;51.024;13.826;2024-01-06T02:42:01;26.90;;;21.80;;
1276;SDS011;631;51.024;13.826;2024-01-06T02:44:27;25.27;;;21.97;;
1276;SDS011;631;51.024;13.826;2024-01-06T02:46:52;27.47;;;22.63;;
1276;SDS011;631;51.024;13.826;2024-01-06T02:49:19;25.75;;;22.95;;
1276;SDS011;631;51.024;13.826;2024-01-06T02:51:44;25.80;;;22.90;;
1276;SDS011;631;51.024;13.826;2024-01-06T02:54:10;29.93;;;22.80;;
1276;SDS011;631;51.024;13.826;2024-01-06T02:56:36;29.00;;;23.80;;
1276;SDS011;631;51.024;13.826;2024-01-06T02:59:03;25.98;;;22.35;;
1276;SDS011;631;51.024;13.826;2024-01-06T03:01:28;30.00;;;23.23;;
1276;SDS011;631;51.024;13.826;2024-01-06T03:03:54;26.33;;;23.30;;
1276;SDS011;631;51.024;13.826;2024-01-06T03:06:19;27.00;;;22.10;;
1276;SDS011;631;51.024;13.826;2024-01-06T03:08:45;27.17;;;23.00;;
1276;SDS011;631;51.024;13.826;2024-01-06T03:11:11;23.53;;;21.03;;
1276;SDS011;631;51.024;13.826;2024-01-06T03:13:36;25.53;;;21.80;;
1276;SDS011;631;51.024;13.826;2024-01-06T03:16:03;24.10;;;21.37;;
1276;SDS011;631;51.024;13.826;2024-01-06T03:18:30;28.33;;;23.60;;
1276;SDS011;631;51.024;13.826;2024-01-06T03:20:56;27.50;;;22.63;;
1276;SDS011;631;51.024;13.826;2024-01-06T03:23:21;24.30;;;21.80;;
1276;SDS011;631;51.024;13.826;2024-01-06T03:25:47;24.30;;;21.47;;
1276;SDS011;631;51.024;13.826;2024-01-06T03:28:12;26.10;;;23.40;;
1276;SDS011;631;51.024;13.826;2024-01-06T03:30:38;23.13;;;20.80;;
1276;SDS011;631;51.024;13.826;2024-01-06T03:33:05;27.03;;;23.00;;
1276;SDS011;631;51.024;13.826;2024-01-06T03:35:31;27.48;;;21.73;;
1276;SDS011;631;51.024;13.826;2024-01-06T03:37:56;24.23;;;21.40;;
1276;SDS011;631;51.024;13.826;2024-01-06T03:40:22;26.77;;;21.60;;
1276;SDS011;631;51.024;13.826;2024-01-06T03:42:48;24.13;;;21.23;;
1276;SDS011;631;51.024;13.826;2024-01-06T03:45:14;27.90;;;22.30;;
1276;SDS011;631;51.024;13.826;2024-01-06T03:47:39;26.53;;;22.33;;
1276;SDS011;631;51.024;13.826;2024-01-06T03:50:05;25.23;;;22.50;;
1276;SDS011;631;51.024;13.826;2024-01-06T03:52:31;26.20;;;23.00;;
1276;SDS011;631;51.024;13.826;2024-01-06T03:54:56;24.70;;;22.13;;
1276;SDS011;631;51.024;13.826;2024-01-06T03:57:22;23.97;;;21.37;;
1276;SDS011;631;51.024;13.826;2024-01-06T03:59:48;25.57;;;21.23;;
1276;SDS011;631;51.024;13.826;2024-01-06T04:02:13;25.30;;;21.07;;
1276;SDS011;631;51.024;13.826;2024-01-06T04:04:39;25.77;;;23.07;;
1276;SDS011;631;51.024;13.826;2024-01-06T04:07:04;28.70;;;23.03;;
1276;SDS011;631;51.024;13.826;2024-01-06T04:09:31;26.10;;;21.75;;
1276;SDS011;631;51.024;13.826;2024-01-06T04:11:57;26.97;;;22.07;;
1276;SDS011;631;51.024;13.826;2024-01-06T04:14:23;28.93;;;21.33;;
1276;SDS011;631;51.024;13.826;2024-01-06T04:16:48;25.50;;;22.80;;
1276;SDS011;631;51.024;13.826;2024-01-06T04:19:14;23.60;;;20.87;;
1276;SDS011;631;51.024;13.826;2024-01-06T04:21:40;24.30;;;21.80;;
1276;SDS011;631;51.024;13.826;2024-01-06T04:24:05;26.30;;;21.67;;
1276;SDS011;631;51.024;13.826;2024-01-06T04:26:31;24.63;;;21.17;;
1276;SDS011;631;51.024;13.826;2024-01-06T04:28:57;25.50;;;21.50;;
1276;SDS011;631;51.024;13.826;2024-01-06T04:31:22;25.23;;;22.50;;
1276;SDS011;631;51.024;13.826;2024-01-06T04:33:48;24.90;;;22.17;;
1276;SDS011;631;51.024;13.826;2024-01-06T04:36:14;30.70;;;22.30;;
1276;SDS011;631;51.024;13.826;2024-01-06T04:38:39;30.73;;;22.73;;
1276;SDS011;631;51.024;13.826;2024-01-06T04:41:05;25.57;;;21.70;;
1276;SDS011;631;51.024;13.826;2024-01-06T04:43:30;24.90;;;21.60;;
1276;SDS011;631;51.024;13.826;2024-01-06T04:45:56;28.40;;;23.23;;
1276;SDS011;631;51.024;13.826;2024-01-06T04:48:23;26.70;;;23.83;;
1276;SDS011;631;51.024;13.826;2024-01-06T04:50:49;25.35;;;22.65;;
1276;SDS011;631;51.024;13.826;2024-01-06T04:53:14;25.83;;;21.90;;
1276;SDS011;631;51.024;13.826;2024-01-06T04:55:40;27.00;;;22.87;;
1276;SDS011;631;51.024;13.826;2024-01-06T04:58:05;24.83;;;22.13;;
1276;SDS011;631;51.024;13.826;2024-01-06T05:00:31;26.30;;;22.17;;
1276;SDS011;631;51.024;13.826;2024-01-06T05:02:57;28.90;;;22.38;;
1276;SDS011;631;51.024;13.826;2024-01-06T05:05:23;24.03;;;21.60;;
1276;SDS011;631;51.024;13.826;2024-01-06T05:07:48;25.50;;;22.33;;
1276;SDS011;631;51.024;13.826;2024-01-06T05:10:14;26.67;;;21.53;;
1276;SDS011;631;51.024;13.826;2024-01-06T05:12:39;25.93;;;22.20;;
1276;SDS011;631;51.024;13.826;2024-01-06T05:15:05;29.00;;;21.60;;
1276;SDS011;631;51.024;13.826;2024-01-06T05:17:31;25.47;;;22.63;;
1276;SDS011;631;51.024;13.826;2024-01-06T05:19:57;29.47;;;22.17;;
1276;SDS011;631;51.024;13.826;2024-01-06T05:22:22;29.60;;;21.80;;
1276;SDS011;631;51.024;13.826;2024-01-06T05:24:48;25.42;;;22.65;;
1276;SDS011;631;51.024;13.826;2024-01-06T05:27:18;25.58;;;22.77;;
1276;SDS011;631;51.024;13.826;2024-01-06T05:29:43;23.23;;;20.80;;
1276;SDS011;631;51.024;13.826;2024-01-06T05:32:09;28.40;;;22.00;;
1276;SDS011;631;51.024;13.826;2024-01-06T05:34:35;28.30;;;22.00;;
1276;SDS011;631;51.024;13.826;2024-01-06T05:37:00;26.27;;;23.43;;
1276;SDS011;631;51.024;13.826;2024-01-06T05:39:26;24.90;;;22.07;;
1276;SDS011;631;51.024;13.826;2024-01-06T05:41:52;26.30;;;22.90;;
1276;SDS011;631;51.024;13.826;2024-01-06T05:44:18;28.48;;;23.23;;
1276;SDS011;631;51.024;13.826;2024-01-06T05:46:44;26.43;;;23.70;;
1276;SDS011;631;51.024;13.826;2024-01-06T05:49:09;24.50;;;21.83;;
1276;SDS011;631;51.024;13.826;2024-01-06T05:51:35;28.43;;;22.67;;
1276;SDS011;631;51.024;13.826;2024-01-06T05:54:01;24.67;;;22.00;;
1276;SDS011;631;51.024;13.826;2024-01-06T05:56:27;34.88;;;25.27;;
1276;SDS011;631;51.024;13.826;2024-01-06T05:58:54;28.35;;;22.90;;
1276;SDS011;631;51.024;13.826;2024-01-06T06:01:20;28.77;;;22.25;;
1276;SDS011;631;51.024;13.826;2024-01-06T06:03:46;27.98;;;23.33;;
1276;SDS011;631;51.024;13.826;2024-01-06T06:06:12;24.20;;;21.60;;
1276;SDS011;631;51.024;13.826;2024-01-06T06:08:39;32.63;;;22.70;;
1276;SDS011;631;51.024;13.826;2024-01-06T06:11:06;28.08;;;22.35;;
1276;SDS011;631;51.024;13.826;2024-01-06T06:13:36;29.98;;;22.30;;
1276;SDS011;631;51.024;13.826;2024-01-06T06:16:03;27.60;;;22.05;;
1276;SDS011;631;51.024;13.826;2024-01-06T06:18:29;24.90;;;21.75;;
1276;SDS011;631;51.024;13.826;2024-01-06T06:20:55;32.90;;;23.40;;
1276;SDS011;631;51.024;13.826;2024-01-06T06:23:21;31.33;;;23.53;;
1276;SDS011;631;51.024;13.826;2024-01-06T06:25:46;30.47;;;22.57;;
1276;SDS011;631;51.024;13.826;2024-01-06T06:28:12;30.93;;;23.23;;
1276;SDS011;631;51.024;13.826;2024-01-06T06:30:37;38.93;;;24.87;;
1276;SDS011;631;51.024;13.826;2024-01-06T06:33:03;32.77;;;23.97;;
1276;SDS011;631;51.024;13.826;2024-01-06T06:35:29;32.70;;;24.60;;
1276;SDS011;631;51.024;13.826;2024-01-06T06:37:54;33.83;;;24.10;;
1276;SDS011;631;51.024;13.826;2024-01-06T06:40:20;35.67;;;24.43;;
1276;SDS011;631;51.024;13.826;2024-01-06T06:42:46;36.87;;;25.50;;
1276;SDS011;631;51.024;13.826;2024-01-06T06:45:11;39.70;;;25.57;;
1276;SDS011;631;51.024;13.826;2024-01-06T06:47:37;33.57;;;24.87;;
1276;SDS011;631;51.024;13.826;2024-01-06T06:50:03;36.80;;;25.30;;
1276;SDS011;631;51.024;13.826;2024-01-06T06:52:28;37.67;;;25.50;;
1276;SDS011;631;51.024;13.826;2024-01-06T06:54:54;32.90;;;23.97;;
1276;SDS011;631;51.024;13.826;2024-01-06T06:57:20;40.53;;;26.00;;
1276;SDS011;631;51.024;13.826;2024-01-06T06:59:45;38.03;;;26.57;;
1276;SDS011;631;51.024;13.826;2024-01-06T07:02:11;39.93;;;25.30;;
1276;SDS011;631;51.024;13.826;2024-01-06T07:04:36;35.03;;;24.60;;
1276;SDS011;631;51.024;13.826;2024-01-06T07:07:02;38.87;;;25.07;;
1276;SDS011;631;51.024;13.826;2024-01-06T07:09:28;36.87;;;23.50;;
1276;SDS011;631;51.024;13.826;2024-01-06T07:11:53;38.60;;;25.83;;
1276;SDS011;631;51.024;13.826;2024-01-06T07:14:19;37.27;;;24.53;;
1276;SDS011;631;51.024;13.826;2024-01-06T07:16:45;42.80;;;25.70;;
1276;SDS011;631;51.024;13.826;2024-01-06T07:19:10;32.40;;;23.63;;
1276;SDS011;631;51.024;13.826;2024-01-06T07:21:36;31.67;;;24.30;;
1276;SDS011;631;51.024;13.826;2024-01-06T07:24:02;32.92;;;24.42;;
1276;SDS011;631;51.024;13.826;2024-01-06T07:26:28;34.27;;;22.10;;
1276;SDS011;631;51.024;13.826;2024-01-06T07:28:53;41.80;;;23.93;;
1276;SDS011;631;51.024;13.826;2024-01-06T07:31:19;35.50;;;23.35;;
1276;SDS011;631;51.024;13.826;2024-01-06T07:33:45;39.40;;;24.90;;
1276;SDS011;631;51.024;13.826;2024-01-06T07:36:11;40.63;;;25.57;;
1276;SDS011;631;51.024;13.826;2024-01-06T07:38:37;33.53;;;24.17;;
1276;SDS011;631;51.024;13.826;2024-01-06T07:41:02;30.90;;;23.07;;
1276;SDS011;631;51.024;13.826;2024-01-06T07:43:29;37.85;;;24.05;;
1276;SDS011;631;51.024;13.826;2024-01-06T07:45:55;35.75;;;23.15;;
1276;SDS011;631;51.024;13.826;2024-01-06T07:48:21;36.50;;;23.97;;
1276;SDS011;631;51.024;13.826;2024-01-06T07:50:47;39.10;;;24.27;;
1276;SDS011;631;51.024;13.826;2024-01-06T07:53:12;37.20;;;24.07;;
1276;SDS011;631;51.024;13.826;2024-01-06T07:55:41;41.17;;;24.10;;
1276;SDS011;631;51.024;13.826;2024-01-06T07:58:06;36.90;;;24.27;;
1276;SDS011;631;51.024;13.826;2024-01-06T08:00:32;35.13;;;23.73;;
1276;SDS011;631;51.024;13.826;2024-01-06T08:02:58;45.77;;;27.20;;
1276;SDS011;631;51.024;13.826;2024-01-06T08:05:23;45.33;;;24.97;;
1276;SDS011;631;51.024;13.826;2024-01-06T08:07:50;38.07;;;25.13;;
1276;SDS011;631;51.024;13.826;2024-01-06T08:10:16;42.90;;;25.08;;
1276;SDS011;631;51.024;13.826;2024-01-06T08:12:42;46.13;;;26.90;;
1276;SDS011;631;51.024;13.826;2024-01-06T08:15:08;39.33;;;26.35;;
1276;SDS011;631;51.024;13.826;2024-01-06T08:17:34;35.90;;;24.80;;
1276;SDS011;631;51.024;13.826;2024-01-06T08:20:00;45.13;;;26.50;;
1276;SDS011;631;51.024;13.826;2024-01-06T08:22:26;43.22;;;25.90;;
1276;SDS011;631;51.024;13.826;2024-01-06T08:24:52;39.97;;;25.17;;
1276;SDS011;631;51.024;13.826;2024-01-06T08:27:18;33.70;;;25.00;;
1276;SDS011;631;51.024;13.826;2024-01-06T08:29:43;39.43;;;25.80;;
1276;SDS011;631;51.024;13.826;2024-01-06T08:32:09;37.43;;;24.83;;
1276;SDS011;631;51.024;13.826;2024-01-06T08:34:36;37.58;;;24.90;;
1276;SDS011;631;51.024;13.826;2024-01-06T08:37:02;33.10;;;23.10;;
1276;SDS011;631;51.024;13.826;2024-01-06T08:39:29;34.92;;;24.60;;
1276;SDS011;631;51.024;13.826;2024-01-06T08:41:54;35.13;;;23.80;;
1276;SDS011;631;51.024;13.826;2024-01-06T08:44:20;35.07;;;24.00;;
1276;SDS011;631;51.024;13.826;2024-01-06T08:46:45;37.27;;;24.93;;
1276;SDS011;631;51.024;13.826;2024-01-06T08:49:11;33.57;;;25.37;;
1276;SDS011;631;51.024;13.826;2024-01-06T08:51:37;32.43;;;23.67;;
1276;SDS011;631;51.024;13.826;2024-01-06T08:54:02;30.63;;;23.27;;
1276;SDS011;631;51.024;13.826;2024-01-06T08:56:31;34.00;;;24.25;;
1276;SDS011;631;51.024;13.826;2024-01-06T08:58:57;32.90;;;24.13;;
1276;SDS011;631;51.024;13.826;2024-01-06T09:01:22;38.43;;;25.90;;
1276;SDS011;631;51.024;13.826;2024-01-06T09:03:48;41.40;;;26.43;;
1276;SDS011;631;51.024;13.826;2024-01-06T09:06:15;38.30;;;25.55;;
1276;SDS011;631;51.024;13.826;2024-01-06T09:08:41;37.13;;;26.65;;
1276;SDS011;631;51.024;13.826;2024-01-06T09:11:06;37.33;;;24.63;;
1276;SDS011;631;51.024;13.826;2024-01-06T09:13:32;36.37;;;25.60;;
1276;SDS011;631;51.024;13.826;2024-01-06T09:15:58;34.67;;;23.90;;
1276;SDS011;631;51.024;13.826;2024-01-06T09:18:25;39.97;;;27.58;;
1276;SDS011;631;51.024;13.826;2024-01-06T09:20:51;36.22;;;26.42;;
1276;SDS011;631;51.024;13.826;2024-01-06T09:23:17;36.53;;;25.27;;
1276;SDS011;631;51.024;13.826;2024-01-06T09:25:43;38.20;;;26.20;;
1276;SDS011;631;51.024;13.826;2024-01-06T09:28:08;37.80;;;26.30;;
1276;SDS011;631;51.024;13.826;2024-01-06T09:30:35;39.28;;;26.10;;
1276;SDS011;631;51.024;13.826;2024-01-06T09:33:02;41.90;;;27.13;;
1276;SDS011;631;51.024;13.826;2024-01-06T09:35:28;37.97;;;26.37;;
1276;SDS011;631;51.024;13.826;2024-01-06T09:37:53;38.60;;;27.93;;
1276;SDS011;631;51.024;13.826;2024-01-06T09:40:20;41.92;;;27.30;;
1276;SDS011;631;51.024;13.826;2024-01-06T09:42:51;40.30;;;25.42;;
1276;SDS011;631;51.024;13.826;2024-01-06T09:45:18;34.63;;;25.42;;
1276;SDS011;631;51.024;13.826;2024-01-06T09:47:48;39.17;;;27.73;;
1276;SDS011;631;51.024;13.826;2024-01-06T09:50:15;40.65;;;27.13;;
1276;SDS011;631;51.024;13.826;2024-01-06T09:52:45;36.35;;;29.92;;
1276;SDS011;631;51.024;13.826;2024-01-06T09:55:17;34.15;;;25.20;;
1276;SDS011;631;51.024;13.826;2024-01-06T09:57:47;38.07;;;27.50;;
1276;SDS011;631;51.024;13.826;2024-01-06T10:00:13;37.07;;;27.87;;
1276;SDS011;631;51.024;13.826;2024-01-06T10:02:39;34.77;;;26.67;;
1276;SDS011;631;51.024;13.826;2024-01-06T10:05:05;35.50;;;26.50;;
1276;SDS011;631;51.024;13.826;2024-01-06T10:07:31;35.65;;;27.58;;
1276;SDS011;631;51.024;13.826;2024-01-06T10:09:57;30.60;;;24.70;;
1276;SDS011;631;51.024;13.826;2024-01-06T10:12:26;27.47;;;23.93;;
1276;SDS011;631;51.024;13.826;2024-01-06T10:14:53;35.53;;;24.77;;
1276;SDS011;631;51.024;13.826;2024-01-06T10:17:18;27.10;;;24.30;;
1276;SDS011;631;51.024;13.826;2024-01-06T10:19:45;30.20;;;23.90;;
1276;SDS011;631;51.024;13.826;2024-01-06T10:22:11;32.13;;;24.77;;
1276;SDS011;631;51.024;13.826;2024-01-06T10:24:37;27.77;;;24.30;;
1276;SDS011;631;51.024;13.826;2024-01-06T10:27:03;27.57;;;24.53;;
1276;SDS011;631;51.024;13.826;2024-01-06T10:29:29;27.10;;;22.57;;
1276;SDS011;631;51.024;13.826;2024-01-06T10:31:54;26.50;;;22.90;;
1276;SDS011;631;51.024;13.826;2024-01-06T10:34:20;31.13;;;25.23;;
1276;SDS011;631;51.024;13.826;2024-01-06T10:36:49;29.93;;;25.03;;
1276;SDS011;631;51.024;13.826;2024-01-06T10:39:16;32.70;;;23.63;;
1276;SDS011;631;51.024;13.826;2024-01-06T10:41:43;26.63;;;22.80;;
1276;SDS011;631;51.024;13.826;2024-01-06T10:44:10;32.30;;;24.37;;
1276;SDS011;631;51.024;13.826;2024-01-06T10:46:36;30.87;;;24.67;;
1276;SDS011;631;51.024;13.826;2024-01-06T10:49:05;27.10;;;22.33;;
1276;SDS011;631;51.024;13.826;2024-01-06T10:51:34;29.83;;;25.10;;
1276;SDS011;631;51.024;13.826;2024-01-06T10:54:01;26.83;;;23.50;;
1276;SDS011;631;51.024;13.826;2024-01-06T10:56:27;31.10;;;25.67;;
1276;SDS011;631;51.024;13.826;2024-01-06T10:58:55;27.20;;;23.40;;
1276;SDS011;631;51.024;13.826;2024-01-06T11:01:23;26.83;;;24.00;;
1276;SDS011;631;51.024;13.826;2024-01-06T11:03:52;27.23;;;24.27;;
1276;SDS011;631;51.024;13.826;2024-01-06T11:06:19;29.10;;;24.80;;
1276;SDS011;631;51.024;13.826;2024-01-06T11:08:49;25.03;;;22.50;;
1276;SDS011;631;51.024;13.826;2024-01-06T11:11:19;26.30;;;22.83;;
1276;SDS011;631;51.024;13.826;2024-01-06T11:13:46;27.63;;;24.07;;
1276;SDS011;631;51.024;13.826;2024-01-06T11:16:33;28.20;;;23.80;;
1276;SDS011;631;51.024;13.826;2024-01-06T11:19:02;28.97;;;24.60;;
1276;SDS011;631;51.024;13.826;2024-01-06T11:21:29;26.50;;;23.70;;
1276;SDS011;631;51.024;13.826;2024-01-06T11:26:44;43.67;;;34.27;;
1276;SDS011;631;51.024;13.826;2024-01-06T11:29:14;37.50;;;31.63;;
1276;SDS011;631;51.024;13.826;2024-01-06T11:31:40;34.57;;;29.73;;
1276;SDS011;631;51.024;13.826;2024-01-06T11:34:15;30.60;;;26.13;;
1276;SDS011;631;51.024;13.826;2024-01-06T11:36:45;29.13;;;24.90;;
1276;SDS011;631;51.024;13.826;2024-01-06T11:42:06;26.03;;;23.03;;
1276;SDS011;631;51.024;13.826;2024-01-06T11:44:38;25.63;;;23.00;;
1276;SDS011;631;51.024;13.826;2024-01-06T11:47:05;26.10;;;23.40;;
1276;SDS011;631;51.024;13.826;2024-01-06T11:49:31;25.80;;;23.13;;
1276;SDS011;631;51.024;13.826;2024-01-06T11:51:57;28.33;;;23.37;;
1276;SDS011;631;51.024;13.826;2024-01-06T11:54:23;28.17;;;23.87;;
1276;SDS011;631;51.024;13.826;2024-01-06T11:56:49;26.10;;;22.93;;
1276;SDS011;631;51.024;13.826;2024-01-06T11:59:18;24.87;;;22.20;;
1276;SDS011;631;51.024;13.826;2024-01-06T12:01:44;26.83;;;22.97;;
1276;SDS011;631;51.024;13.826;2024-01-06T12:04:12;30.50;;;24.10;;
1276;SDS011;631;51.024;13.826;2024-01-06T12:06:39;25.80;;;22.10;;
1276;SDS011;631;51.024;13.826;2024-01-06T12:11:31;28.80;;;25.70;;
1276;SDS011;631;51.024;13.826;2024-01-06T12:13:57;26.97;;;24.03;;
1276;SDS011;631;51.024;13.826;2024-01-06T12:16:22;28.27;;;25.10;;
1276;SDS011;631;51.024;13.826;2024-01-06T12:18:52;27.90;;;23.33;;
1276;SDS011;631;51.024;13.826;2024-01-06T12:21:20;28.27;;;23.77;;
1276;SDS011;631;51.024;13.826;2024-01-06T12:23:47;26.93;;;24.13;;
1276;SDS011;631;51.024;13.826;2024-01-06T12:26:13;29.87;;;24.60;;
1276;SDS011;631;51.024;13.826;2024-01-06T12:28:38;27.40;;;24.57;;
1276;SDS011;631;51.024;13.826;2024-01-06T12:31:04;25.57;;;22.97;;
1276;SDS011;631;51.024;13.826;2024-01-06T12:33:34;26.20;;;23.47;;
1276;SDS011;631;51.024;13.826;2024-01-06T12:36:02;26.10;;;23.30;;
1276;SDS011;631;51.024;13.826;2024-01-06T12:38:29;26.83;;;23.70;;
1276;SDS011;631;51.024;13.826;2024-01-06T12:40:55;26.80;;;23.43;;
1276;SDS011;631;51.024;13.826;2024-01-06T12:43:21;26.70;;;23.90;;
1276;SDS011;631;51.024;13.826;2024-01-06T12:45:46;29.07;;;25.00;;
1276;SDS011;631;51.024;13.826;2024-01-06T12:48:12;25.47;;;22.80;;
1276;SDS011;631;51.024;13.826;2024-01-06T12:50:38;25.73;;;23.27;;
1276;SDS011;631;51.024;13.826;2024-01-06T12:53:04;25.80;;;23.10;;
1276;SDS011;631;51.024;13.826;2024-01-06T12:55:29;27.70;;;24.80;;
1276;SDS011;631;51.024;13.826;2024-01-06T12:57:55;27.00;;;24.10;;
1276;SDS011;631;51.024;13.826;2024-01-06T13:00:21;28.73;;;24.40;;
1276;SDS011;631;51.024;13.826;2024-01-06T13:02:46;29.40;;;23.00;;
1276;SDS011;631;51.024;13.826;2024-01-06T13:05:12;29.73;;;25.47;;
1276;SDS011;631;51.024;13.826;2024-01-06T13:07:38;27.80;;;25.00;;
1276;SDS011;631;51.024;13.826;2024-01-06T13:10:05;26.37;;;23.67;;
1276;SDS011;631;51.024;13.826;2024-01-06T13:12:30;27.27;;;24.30;;
1276;SDS011;631;51.024;13.826;2024-01-06T13:14:56;26.30;;;23.50;;
1276;SDS011;631;51.024;13.826;2024-01-06T13:17:22;27.37;;;24.40;;
1276;SDS011;631;51.024;13.826;2024-01-06T13:19:48;26.20;;;23.40;;
1276;SDS011;631;51.024;13.826;2024-01-06T13:22:14;24.63;;;22.13;;
1276;SDS011;631;51.024;13.826;2024-01-06T13:24:41;29.13;;;25.23;;
1276;SDS011;631;51.024;13.826;2024-01-06T13:27:06;23.83;;;21.53;;
1276;SDS011;631;51.024;13.826;2024-01-06T13:29:32;25.00;;;22.43;;
1276;SDS011;631;51.024;13.826;2024-01-06T13:31:58;22.93;;;20.63;;
1276;SDS011;631;51.024;13.826;2024-01-06T13:34:24;23.23;;;20.77;;
1276;SDS011;631;51.024;13.826;2024-01-06T13:36:50;24.23;;;20.70;;
1276;SDS011;631;51.024;13.826;2024-01-06T13:39:15;21.93;;;19.43;;
1276;SDS011;631;51.024;13.826;2024-01-06T13:41:50;21.57;;;19.47;;
1276;SDS011;631;51.024;13.826;2024-01-06T13:44:16;22.40;;;19.77;;
1276;SDS011;631;51.024;13.826;2024-01-06T13:46:41;22.40;;;20.03;;
1276;SDS011;631;51.024;13.826;2024-01-06T13:49:10;27.43;;;20.70;;
1276;SDS011;631;51.024;13.826;2024-01-06T13:51:36;24.67;;;22.07;;
1276;SDS011;631;51.024;13.826;2024-01-06T13:54:03;23.43;;;21.03;;
1276;SDS011;631;51.024;13.826;2024-01-06T13:56:29;26.87;;;21.20;;
1276;SDS011;631;51.024;13.826;2024-01-06T13:58:54;25.00;;;20.77;;
1276;SDS011;631;51.024;13.826;2024-01-06T14:01:20;22.93;;;20.63;;
1276;SDS011;631;51.024;13.826;2024-01-06T14:03:45;24.00;;;21.03;;
1276;SDS011;631;51.024;13.826;2024-01-06T14:06:11;22.93;;;20.67;;
1276;SDS011;631;51.024;13.826;2024-01-06T14:08:37;24.33;;;20.93;;
1276;SDS011;631;51.024;13.826;2024-01-06T14:11:03;23.30;;;20.37;;
1276;SDS011;631;51.024;13.826;2024-01-06T14:13:30;28.53;;;20.90;;
1276;SDS011;631;51.024;13.826;2024-01-06T14:15:56;27.03;;;21.30;;
1276;SDS011;631;51.024;13.826;2024-01-06T14:18:22;28.55;;;21.95;;
1276;SDS011;631;51.024;13.826;2024-01-06T14:20:47;27.40;;;22.77;;
1276;SDS011;631;51.024;13.826;2024-01-06T14:23:13;26.80;;;21.27;;
1276;SDS011;631;51.024;13.826;2024-01-06T14:25:39;27.73;;;22.50;;
1276;SDS011;631;51.024;13.826;2024-01-06T14:28:05;26.70;;;22.33;;
1276;SDS011;631;51.024;13.826;2024-01-06T14:30:33;28.95;;;21.55;;
1276;SDS011;631;51.024;13.826;2024-01-06T14:32:59;25.90;;;22.83;;
1276;SDS011;631;51.024;13.826;2024-01-06T14:35:25;26.57;;;22.37;;
1276;SDS011;631;51.024;13.826;2024-01-06T14:37:50;29.57;;;23.30;;
1276;SDS011;631;51.024;13.826;2024-01-06T14:40:17;31.25;;;23.35;;
1276;SDS011;631;51.024;13.826;2024-01-06T14:42:43;29.10;;;24.70;;
1276;SDS011;631;51.024;13.826;2024-01-06T14:45:09;31.07;;;23.27;;
1276;SDS011;631;51.024;13.826;2024-01-06T14:47:35;33.23;;;23.50;;
1276;SDS011;631;51.024;13.826;2024-01-06T14:50:00;32.90;;;23.77;;